Time;durP1;ratioP1;P1;durP2;ratioP2;P2;SDS_P1;SDS_P2;PMS_P1;PMS_P2;Temp;Humidity;BMP_temperature;BMP_pressure;BME280_temperature;BME280_humidity;BME280_pressure;Samples;Min_cycle;Max_cycle;Signal;HPM_P1;HPM_P2
2021/12/12 00:00:51;;;;;;;5.13;3.20;;;18.50;46.30;;;;;;4978593;28;20265;-24
2021/12/12 00:03:33;;;;;;;5.27;3.10;;;18.50;46.30;;;;;;4996488;28;20212;-26
2021/12/12 00:06:05;;;;;;;6.30;2.80;;;18.40;46.40;;;;;;4996921;28;20186;-24
2021/12/12 00:08:31;;;;;;;5.20;2.80;;;18.40;46.40;;;;;;4979392;28;20206;-23
2021/12/12 00:11:02;;;;;;;6.20;2.93;;;18.40;46.40;;;;;;4997222;28;20189;-25
2021/12/12 00:13:38;;;;;;;5.37;3.20;;;18.40;46.50;;;;;;4997276;28;20323;-22
2021/12/12 00:16:05;;;;;;;5.33;2.80;;;18.30;46.40;;;;;;4980300;28;20528;-25
2021/12/12 00:18:31;;;;;;;5.77;3.00;;;18.30;46.40;;;;;;4979498;28;20256;-24
2021/12/12 00:20:57;;;;;;;6.47;2.97;;;18.30;46.40;;;;;;4996617;28;20190;-23
2021/12/12 00:23:24;;;;;;;4.10;2.90;;;18.30;46.40;;;;;;4979229;28;20229;-24
2021/12/12 00:25:52;;;;;;;5.47;2.80;;;18.30;46.40;;;;;;4997086;28;20230;-25
2021/12/12 00:28:21;;;;;;;6.57;3.10;;;18.30;46.40;;;;;;4978914;28;20197;-22
2021/12/12 00:30:50;;;;;;;5.30;2.70;;;18.30;46.40;;;;;;4980222;28;20201;-24
2021/12/12 00:33:17;;;;;;;6.33;2.80;;;18.30;46.40;;;;;;4979421;28;20218;-22
2021/12/12 00:35:43;;;;;;;4.40;2.67;;;18.30;46.40;;;;;;4996248;28;20210;-22
2021/12/12 00:38:14;;;;;;;6.37;2.83;;;18.30;46.40;;;;;;4996478;28;20203;-24
2021/12/12 00:40:44;;;;;;;5.13;2.87;;;18.30;46.40;;;;;;4996273;28;20546;-24
2021/12/12 00:43:22;;;;;;;3.80;2.50;;;18.30;46.40;;;;;;4996702;28;20258;-22
2021/12/12 00:45:49;;;;;;;5.10;2.70;;;18.30;46.40;;;;;;4979296;28;20263;-24
2021/12/12 00:48:15;;;;;;;4.37;2.63;;;18.30;46.30;;;;;;4996415;28;20199;-20
2021/12/12 00:50:42;;;;;;;3.80;2.50;;;18.30;46.40;;;;;;4997404;28;20197;-22
2021/12/12 00:53:10;;;;;;;5.27;2.57;;;18.20;46.30;;;;;;4997287;28;20247;-25
2021/12/12 00:55:38;;;;;;;4.60;2.90;;;18.20;46.30;;;;;;4978749;28;20238;-25
2021/12/12 00:58:09;;;;;;;5.23;2.60;;;18.20;46.40;;;;;;4978471;28;20197;-24
2021/12/12 01:00:42;;;;;;;4.43;2.50;;;18.20;46.70;;;;;;4996455;28;20212;-23
2021/12/12 01:03:11;;;;;;;4.67;2.60;;;18.20;46.40;;;;;;4996163;28;20208;-22
2021/12/12 01:05:38;;;;;;;4.77;2.60;;;18.20;46.40;;;;;;4979387;28;20577;-22
2021/12/12 01:08:10;;;;;;;4.70;2.33;;;18.20;46.40;;;;;;4979185;28;20745;-23
2021/12/12 01:10:42;;;;;;;3.10;2.40;;;18.10;46.40;;;;;;4979483;28;20267;-23
2021/12/12 01:13:08;;;;;;;3.63;2.37;;;18.10;46.40;;;;;;4979661;28;20224;-25
2021/12/12 01:15:42;;;;;;;5.20;2.83;;;18.10;46.40;;;;;;4995088;28;20201;-25
2021/12/12 01:18:15;;;;;;;5.10;2.53;;;18.10;46.50;;;;;;4976408;28;20232;-24
2021/12/12 01:20:44;;;;;;;2.80;2.10;;;18.00;46.50;;;;;;4978240;28;20307;-23
2021/12/12 01:23:16;;;;;;;5.60;2.80;;;18.00;46.50;;;;;;4996817;28;20190;-25
2021/12/12 01:25:47;;;;;;;3.90;2.20;;;18.00;46.50;;;;;;4977719;28;20441;-21
2021/12/12 01:28:21;;;;;;;5.10;2.47;;;18.00;46.50;;;;;;4978002;28;20209;-24
2021/12/12 01:30:48;;;;;;;4.17;2.33;;;18.00;46.60;;;;;;4978655;28;20200;-28
2021/12/12 01:33:21;;;;;;;5.63;2.50;;;17.90;46.50;;;;;;4977882;28;20625;-24
2021/12/12 01:35:47;;;;;;;6.67;2.53;;;17.90;46.50;;;;;;4978301;28;20205;-23
2021/12/12 01:40:58;;;;;;;3.27;2.30;;;17.90;46.60;;;;;;4995273;28;20196;-23
2021/12/12 01:43:40;;;;;;;3.23;2.10;;;17.80;46.60;;;;;;4996326;28;20190;-23
2021/12/12 01:46:19;;;;;;;3.60;2.20;;;17.80;46.60;;;;;;4995595;28;20220;-24
2021/12/12 01:49:04;;;;;;;4.17;2.17;;;17.80;46.60;;;;;;4979060;28;20219;-26
2021/12/12 01:51:30;;;;;;;3.50;2.30;;;17.80;46.60;;;;;;4977046;28;20198;-23
2021/12/12 01:53:59;;;;;;;4.47;2.30;;;17.70;46.50;;;;;;4978343;28;20224;-23
2021/12/12 01:56:30;;;;;;;3.13;1.93;;;17.70;46.50;;;;;;4978503;28;20225;-24
2021/12/12 01:59:01;;;;;;;4.27;2.00;;;17.80;46.60;;;;;;4995347;28;20206;-22
2021/12/12 02:01:35;;;;;;;2.97;2.20;;;17.70;46.50;;;;;;4978799;28;20196;-24
2021/12/12 02:04:07;;;;;;;3.57;2.30;;;17.70;46.50;;;;;;4976557;28;20182;-22
2021/12/12 02:06:33;;;;;;;3.23;2.10;;;17.70;46.40;;;;;;4995582;28;20197;-25
2021/12/12 02:09:00;;;;;;;4.40;2.00;;;17.70;46.50;;;;;;4995686;28;20198;-23
2021/12/12 02:11:32;;;;;;;2.90;2.00;;;17.70;46.50;;;;;;4994928;28;20563;-24
2021/12/12 02:14:08;;;;;;;3.20;2.00;;;17.70;46.50;;;;;;4995310;28;20609;-21
2021/12/12 02:16:38;;;;;;;2.67;1.80;;;17.60;46.40;;;;;;4978178;28;20197;-22
2021/12/12 02:19:06;;;;;;;4.47;2.23;;;17.60;46.40;;;;;;4978041;28;20198;-24
2021/12/12 02:21:55;;;;;;;3.37;1.97;;;17.60;46.50;;;;;;4995886;28;20594;-24
2021/12/12 02:35:41;;;;;;;4.20;2.03;;;17.50;46.50;;;;;;4995102;28;20257;-23
2021/12/12 02:38:08;;;;;;;3.67;2.20;;;17.50;46.60;;;;;;4979292;28;20196;-24
2021/12/12 02:40:51;;;;;;;6.40;2.10;;;17.50;46.60;;;;;;4978677;28;20204;-25
2021/12/12 02:43:20;;;;;;;3.43;2.00;;;17.40;46.60;;;;;;4978396;28;20274;-23
2021/12/12 02:45:48;;;;;;;3.77;1.90;;;17.40;46.60;;;;;;4995042;28;20200;-23
2021/12/12 02:48:19;;;;;;;2.70;1.77;;;17.40;46.50;;;;;;4976969;28;20198;-24
2021/12/12 02:50:50;;;;;;;2.70;1.70;;;17.40;46.60;;;;;;4994691;28;20621;-22
2021/12/12 02:53:18;;;;;;;3.93;2.07;;;17.40;46.60;;;;;;4994719;28;20239;-24
2021/12/12 02:55:48;;;;;;;2.70;1.83;;;17.30;46.60;;;;;;4978102;28;20216;-23
2021/12/12 02:58:20;;;;;;;3.57;2.17;;;17.30;46.70;;;;;;4977329;28;20202;-24
2021/12/12 03:01:06;;;;;;;4.90;1.90;;;17.30;46.70;;;;;;4995385;28;20208;-23
2021/12/12 03:03:35;;;;;;;1.90;1.57;;;17.30;46.60;;;;;;4977817;28;20578;-24
2021/12/12 03:06:02;;;;;;;3.50;2.00;;;17.30;46.80;;;;;;4977376;28;20479;-23
2021/12/12 03:08:27;;;;;;;4.07;1.90;;;17.20;46.70;;;;;;4994433;28;20345;-23
2021/12/12 03:10:55;;;;;;;3.00;1.67;;;17.20;46.70;;;;;;4994465;28;20210;-23
2021/12/12 03:13:22;;;;;;;2.30;1.70;;;17.20;46.70;;;;;;4994523;28;20218;-24
2021/12/12 03:15:48;;;;;;;2.93;1.57;;;17.10;46.80;;;;;;4994833;28;20537;-24
2021/12/12 03:18:19;;;;;;;3.13;1.70;;;17.10;46.80;;;;;;4993901;28;20186;-22
2021/12/12 03:20:50;;;;;;;2.83;1.67;;;17.10;46.80;;;;;;4995557;28;20202;-24
2021/12/12 03:23:27;;;;;;;2.77;1.80;;;17.00;46.80;;;;;;4976849;28;20199;-24
2021/12/12 03:25:59;;;;;;;2.93;2.00;;;17.00;46.90;;;;;;4994777;28;20204;-23
2021/12/12 03:28:28;;;;;;;3.13;1.77;;;17.00;46.90;;;;;;4994366;28;20320;-25
2021/12/12 03:30:56;;;;;;;3.97;1.90;;;16.90;47.00;;;;;;4994417;28;20198;-26
2021/12/12 03:33:22;;;;;;;2.43;1.50;;;16.90;46.90;;;;;;4977694;28;20598;-23
2021/12/12 03:35:51;;;;;;;3.87;1.73;;;16.90;47.00;;;;;;4977745;28;20206;-25
2021/12/12 03:38:17;;;;;;;3.10;1.63;;;16.80;47.00;;;;;;4977201;28;20197;-25
2021/12/12 03:40:45;;;;;;;4.57;1.90;;;16.80;47.10;;;;;;4994889;28;20185;-24
2021/12/12 03:43:13;;;;;;;3.10;1.70;;;16.80;47.10;;;;;;4994895;28;20189;-24
2021/12/12 03:45:41;;;;;;;2.50;1.70;;;16.80;47.10;;;;;;4977937;28;20270;-20
2021/12/12 03:48:32;;;;;;;2.93;1.60;;;16.80;47.20;;;;;;4994327;28;20206;-24
2021/12/12 03:51:01;;;;;;;3.33;1.60;;;16.80;47.20;;;;;;4994372;28;20216;-25
2021/12/12 03:53:28;;;;;;;3.13;1.60;;;16.70;47.20;;;;;;4994685;28;20214;-24
2021/12/12 03:55:55;;;;;;;2.13;1.50;;;16.70;47.20;;;;;;4994448;28;20642;-24
2021/12/12 03:58:22;;;;;;;2.43;1.60;;;16.60;47.30;;;;;;4977044;28;20205;-25
2021/12/12 04:00:57;;;;;;;3.07;1.70;;;16.70;47.30;;;;;;4977353;28;20216;-25
2021/12/12 04:03:23;;;;;;;2.17;1.50;;;16.60;47.30;;;;;;4977563;28;20178;-23
2021/12/12 04:05:58;;;;;;;2.73;1.60;;;16.60;47.20;;;;;;4977798;28;20671;-23
2021/12/12 04:08:29;;;;;;;2.70;1.70;;;16.60;47.30;;;;;;4976872;28;20260;-23
2021/12/12 04:10:55;;;;;;;2.50;1.40;;;16.50;47.30;;;;;;4977249;28;20208;-24
2021/12/12 04:13:22;;;;;;;2.93;1.80;;;16.50;47.30;;;;;;4993832;28;20223;-22
2021/12/12 04:15:53;;;;;;;4.03;1.60;;;16.50;47.30;;;;;;4994455;28;20202;-24
2021/12/12 04:18:21;;;;;;;2.07;1.43;;;16.40;47.30;;;;;;4977496;28;20555;-24
2021/12/12 04:20:48;;;;;;;2.30;1.43;;;16.40;47.30;;;;;;4977420;28;20260;-21
2021/12/12 04:23:18;;;;;;;3.40;1.70;;;16.40;47.30;;;;;;4997533;28;20483;-25
2021/12/12 04:25:45;;;;;;;2.40;1.30;;;16.40;47.30;;;;;;4979737;28;20174;-25
2021/12/12 04:28:11;;;;;;;2.67;1.50;;;16.30;47.30;;;;;;4997646;28;20419;-24
2021/12/12 04:30:37;;;;;;;2.43;1.50;;;16.30;47.40;;;;;;4997420;28;20212;-20
2021/12/12 04:33:03;;;;;;;2.90;1.47;;;16.30;47.40;;;;;;4998053;28;20488;-23
2021/12/12 04:35:29;;;;;;;2.57;1.50;;;16.30;47.40;;;;;;4997575;28;20186;-24
2021/12/12 04:37:57;;;;;;;2.50;1.40;;;16.30;47.50;;;;;;4997206;28;20609;-22
2021/12/12 04:40:27;;;;;;;2.93;1.50;;;16.20;47.50;;;;;;4997096;28;20196;-24
2021/12/12 04:42:55;;;;;;;2.20;1.47;;;16.20;47.50;;;;;;4981112;28;20205;-24
2021/12/12 04:45:41;;;;;;;2.97;1.60;;;16.20;47.90;;;;;;4997703;28;20231;-21
2021/12/12 04:50:53;;;;;;;2.80;1.60;;;16.20;47.60;;;;;;4997518;28;20293;-23
2021/12/12 04:53:33;;;;;;;2.93;1.60;;;16.10;47.60;;;;;;4997606;28;20214;-20
2021/12/12 04:56:17;;;;;;;2.73;1.50;;;16.10;47.60;;;;;;4996642;28;20190;-22
2021/12/12 04:59:11;;;;;;;2.67;1.17;;;16.10;47.60;;;;;;4979091;28;20665;-20
2021/12/12 05:02:05;;;;;;;2.17;1.23;;;16.10;47.60;;;;;;4986195;28;20215;-25
2021/12/12 05:04:50;;;;;;;2.03;1.60;;;16.00;47.70;;;;;;4943466;28;20304;-24
2021/12/12 05:07:36;;;;;;;2.17;1.50;;;16.00;47.70;;;;;;4996666;28;20198;-24
2021/12/12 05:10:32;;;;;;;2.40;1.37;;;16.00;47.70;;;;;;4996358;28;20205;-25
2021/12/12 05:13:03;;;;;;;1.90;1.40;;;16.00;47.80;;;;;;4979410;28;20292;-23
2021/12/12 05:15:34;;;;;;;3.07;1.40;;;15.90;47.80;;;;;;4979723;28;20453;-21
2021/12/12 05:18:27;;;;;;;2.83;1.50;;;15.90;47.90;;;;;;4996207;28;20197;-26
2021/12/12 05:21:15;;;;;;;2.70;1.40;;;15.90;47.90;;;;;;4981989;28;20602;-24
2021/12/12 05:23:51;;;;;;;1.90;1.13;;;15.80;47.90;;;;;;4979002;28;20246;-22
2021/12/12 05:26:26;;;;;;;2.80;1.53;;;15.80;48.00;;;;;;4979514;28;20255;-24
2021/12/12 05:29:06;;;;;;;1.70;1.30;;;15.80;48.00;;;;;;4995768;28;20178;-22
2021/12/12 05:31:33;;;;;;;1.53;1.30;;;15.80;48.10;;;;;;4996312;28;20297;-24
2021/12/12 05:34:00;;;;;;;3.20;1.50;;;15.70;48.10;;;;;;4979112;28;20202;-23
2021/12/12 05:36:28;;;;;;;1.70;1.20;;;15.70;48.20;;;;;;4979602;28;20201;-21
2021/12/12 05:38:59;;;;;;;1.73;1.10;;;15.70;48.20;;;;;;4979429;28;20299;-23
2021/12/12 05:41:25;;;;;;;1.83;1.30;;;17.80;47.20;;;;;;4979580;28;20238;-23
2021/12/12 05:43:55;;;;;;;2.07;1.50;;;19.00;44.40;;;;;;4979324;28;20701;-24
2021/12/12 05:46:23;;;;;;;1.80;1.17;;;19.40;43.30;;;;;;4978618;28;20224;-24
2021/12/12 05:48:50;;;;;;;2.40;1.30;;;19.50;43.40;;;;;;4995404;28;20202;-24
2021/12/12 05:51:18;;;;;;;2.10;1.50;;;19.70;42.70;;;;;;4978274;28;20284;-25
2021/12/12 05:53:44;;;;;;;1.67;1.20;;;19.80;42.60;;;;;;4995519;28;20208;-22
2021/12/12 05:56:11;;;;;;;1.93;1.30;;;20.10;42.30;;;;;;4978740;28;20209;-24
2021/12/12 05:58:38;;;;;;;2.77;1.60;;;20.50;41.90;;;;;;4995302;28;20197;-25
2021/12/12 06:01:09;;;;;;;2.67;1.60;;;20.80;41.60;;;;;;4977499;28;20551;-25
2021/12/12 06:03:39;;;;;;;1.83;1.20;;;21.00;41.30;;;;;;4978334;28;20630;-24
2021/12/12 06:06:15;;;;;;;2.03;1.20;;;21.20;41.10;;;;;;4978745;28;20203;-23
2021/12/12 06:08:42;;;;;;;1.70;1.20;;;21.50;40.90;;;;;;4995286;28;20206;-23
2021/12/12 06:11:09;;;;;;;1.43;1.20;;;21.50;40.70;;;;;;4978973;28;20196;-24
2021/12/12 06:13:37;;;;;;;1.53;1.43;;;21.70;40.70;;;;;;4977495;28;20224;-22
2021/12/12 06:16:03;;;;;;;2.73;1.40;;;21.70;40.50;;;;;;4995093;28;20204;-24
2021/12/12 06:18:32;;;;;;;3.27;1.33;;;21.80;40.50;;;;;;4977730;28;20474;-24
2021/12/12 06:20:59;;;;;;;2.63;1.33;;;22.00;40.40;;;;;;4978466;28;20285;-22
2021/12/12 06:23:26;;;;;;;1.70;1.23;;;22.20;40.30;;;;;;4994902;28;20299;-24
2021/12/12 06:25:54;;;;;;;2.03;1.27;;;22.30;40.20;;;;;;4978904;28;20220;-24
2021/12/12 06:28:26;;;;;;;4.57;1.50;;;22.30;40.10;;;;;;4977790;28;20240;-24
2021/12/12 06:30:53;;;;;;;2.50;1.30;;;22.30;40.10;;;;;;4994888;28;20206;-25
2021/12/12 06:33:18;;;;;;;2.13;1.40;;;22.50;40.00;;;;;;4978605;28;20454;-25
2021/12/12 06:35:44;;;;;;;2.10;1.30;;;22.60;39.80;;;;;;4994533;28;20275;-24
2021/12/12 06:38:13;;;;;;;2.33;1.40;;;22.80;39.80;;;;;;4995514;28;20299;-24
2021/12/12 06:40:40;;;;;;;1.90;1.30;;;22.60;39.80;;;;;;4994300;28;20219;-20
2021/12/12 06:43:10;;;;;;;2.00;1.20;;;22.70;39.90;;;;;;4977562;28;20279;-25
2021/12/12 06:45:36;;;;;;;2.80;1.27;;;22.90;39.80;;;;;;4976384;28;20842;-22
2021/12/12 06:48:07;;;;;;;2.03;1.57;;;23.00;39.60;;;;;;4978117;28;20202;-21
2021/12/12 06:50:35;;;;;;;2.10;1.30;;;23.10;39.60;;;;;;4994122;28;20198;-20
2021/12/12 06:53:01;;;;;;;1.73;1.40;;;23.10;39.50;;;;;;4994891;28;20194;-22
2021/12/12 06:55:28;;;;;;;2.10;1.20;;;22.90;39.50;;;;;;4977283;28;20210;-23
2021/12/12 06:57:54;;;;;;;2.53;1.23;;;22.70;39.70;;;;;;4994375;28;20205;-22
2021/12/12 07:00:22;;;;;;;1.57;1.47;;;22.70;39.90;;;;;;4976907;28;20469;-23
2021/12/12 07:02:48;;;;;;;1.77;1.30;;;22.40;40.50;;;;;;4995270;28;20201;-22
2021/12/12 07:05:19;;;;;;;1.63;1.00;;;22.10;40.30;;;;;;4995046;28;20213;-22
2021/12/12 07:07:46;;;;;;;1.60;1.10;;;22.00;40.60;;;;;;4976291;28;20209;-22
2021/12/12 07:10:14;;;;;;;1.83;1.20;;;21.70;40.70;;;;;;4993657;28;20281;-24
2021/12/12 07:12:41;;;;;;;1.60;1.10;;;21.50;40.90;;;;;;4994088;28;20202;-23
2021/12/12 07:15:10;;;;;;;1.13;1.00;;;21.50;41.10;;;;;;4994749;28;20232;-25
2021/12/12 07:17:36;;;;;;;1.13;1.00;;;21.20;41.30;;;;;;4977286;28;20271;-23
2021/12/12 07:20:04;;;;;;;2.13;1.30;;;21.00;41.50;;;;;;4977466;28;20209;-23
2021/12/12 07:22:29;;;;;;;1.27;0.90;;;20.70;41.70;;;;;;4976064;28;20199;-22
2021/12/12 07:24:58;;;;;;;1.20;1.10;;;20.70;41.90;;;;;;4994533;28;20228;-20
2021/12/12 07:27:24;;;;;;;1.93;1.17;;;20.50;42.10;;;;;;4994212;28;20204;-23
2021/12/12 07:29:49;;;;;;;1.97;1.17;;;20.40;42.30;;;;;;4995442;28;20212;-22
2021/12/12 07:32:15;;;;;;;1.60;1.10;;;20.60;42.20;;;;;;4975482;28;20192;-23
2021/12/12 07:34:41;;;;;;;2.90;1.03;;;21.20;41.90;;;;;;4993561;28;20296;-23
2021/12/12 07:37:09;;;;;;;2.10;1.10;;;22.00;41.10;;;;;;4993021;28;20189;-25
2021/12/12 07:39:39;;;;;;;1.03;0.90;;;22.70;40.20;;;;;;4992883;28;20214;-23
2021/12/12 07:42:05;;;;;;;1.73;1.10;;;23.20;39.60;;;;;;4976390;28;20465;-23
2021/12/12 07:44:34;;;;;;;1.30;1.00;;;23.20;39.40;;;;;;4976678;28;20288;-24
2021/12/12 07:46:59;;;;;;;1.60;1.20;;;23.10;39.40;;;;;;4975863;28;20502;-23
2021/12/12 07:49:36;;;;;;;1.37;1.20;;;22.80;39.60;;;;;;4975303;28;20622;-23
2021/12/12 07:52:08;;;;;;;1.90;1.10;;;22.80;39.90;;;;;;4976194;28;20283;-23
2021/12/12 07:54:34;;;;;;;0.80;0.80;;;22.90;39.80;;;;;;4975834;28;20205;-24
2021/12/12 07:57:00;;;;;;;1.13;1.00;;;23.10;39.60;;;;;;4995347;28;20194;-22
2021/12/12 07:59:27;;;;;;;1.00;0.87;;;23.20;39.40;;;;;;4978974;28;20212;-25
2021/12/12 08:01:52;;;;;;;1.00;0.90;;;23.20;39.40;;;;;;4996939;28;20192;-25
2021/12/12 08:04:22;;;;;;;1.93;1.20;;;22.90;39.60;;;;;;4996467;28;20221;-24
2021/12/12 08:06:49;;;;;;;1.00;0.90;;;22.60;39.90;;;;;;4996810;28;20601;-24
2021/12/12 08:09:16;;;;;;;1.23;1.03;;;22.70;40.00;;;;;;4997411;28;20221;-22
2021/12/12 08:11:43;;;;;;;1.33;1.00;;;22.80;39.80;;;;;;4979816;28;20452;-25
2021/12/12 08:14:14;;;;;;;1.43;0.90;;;22.70;39.90;;;;;;4997387;28;20266;-26
2021/12/12 08:16:40;;;;;;;1.10;0.90;;;22.60;40.00;;;;;;4996012;28;20449;-24
2021/12/12 08:19:06;;;;;;;2.10;0.97;;;22.60;40.10;;;;;;4995851;28;20263;-22
2021/12/12 08:21:33;;;;;;;1.47;1.00;;;22.60;40.10;;;;;;4996764;28;20338;-22
2021/12/12 08:24:06;;;;;;;1.00;0.90;;;22.30;40.30;;;;;;4978392;28;20228;-23
2021/12/12 08:26:34;;;;;;;0.80;0.80;;;22.30;40.50;;;;;;4995958;28;20370;-26
2021/12/12 08:29:00;;;;;;;1.27;1.00;;;22.40;40.40;;;;;;4995358;28;20580;-21
2021/12/12 08:31:27;;;;;;;1.23;0.77;;;22.30;40.30;;;;;;4995297;28;20182;-24
2021/12/12 08:33:53;;;;;;;1.30;1.00;;;22.30;40.40;;;;;;4995659;28;20212;-23
2021/12/12 08:36:18;;;;;;;1.50;0.90;;;22.20;40.40;;;;;;4993827;28;20538;-25
2021/12/12 08:38:45;;;;;;;1.07;0.80;;;22.00;40.60;;;;;;4994632;28;20697;-23
2021/12/12 08:41:11;;;;;;;0.87;0.87;;;21.80;40.80;;;;;;4977093;28;20216;-23
2021/12/12 08:43:37;;;;;;;1.10;0.90;;;21.70;41.00;;;;;;4978456;28;20219;-27
2021/12/12 08:46:09;;;;;;;1.10;1.00;;;21.50;41.10;;;;;;4994960;28;20231;-21
2021/12/12 08:48:42;;;;;;;1.23;0.93;;;21.40;41.20;;;;;;4995044;28;20193;-24
2021/12/12 08:51:17;;;;;;;2.33;1.00;;;21.40;41.30;;;;;;4995698;28;20479;-25
2021/12/12 08:53:46;;;;;;;1.00;0.90;;;21.50;41.30;;;;;;4995239;28;20193;-22
2021/12/12 08:56:19;;;;;;;1.23;0.93;;;21.80;41.20;;;;;;4994379;28;20234;-25
2021/12/12 08:58:47;;;;;;;0.70;0.70;;;22.20;40.80;;;;;;4994809;28;20222;-24
2021/12/12 09:01:16;;;;;;;0.60;0.60;;;22.80;40.70;;;;;;4977945;28;20231;-24
2021/12/12 09:03:54;;;;;;;0.87;0.70;;;23.40;39.70;;;;;;4995513;28;20217;-26
2021/12/12 09:06:27;;;;;;;1.00;0.70;;;23.50;39.40;;;;;;4995348;28;20304;-24
2021/12/12 09:09:00;;;;;;;1.10;0.90;;;23.30;39.40;;;;;;4976934;28;20195;-24
2021/12/12 09:11:44;;;;;;;0.70;0.70;;;23.10;39.70;;;;;;4995335;28;20338;-25
2021/12/12 09:14:31;;;;;;;1.20;0.70;;;23.10;39.80;;;;;;4995368;28;20343;-24
2021/12/12 09:17:04;;;;;;;0.80;0.80;;;23.10;39.80;;;;;;4995565;28;20194;-23
2021/12/12 09:19:41;;;;;;;1.30;0.80;;;23.00;39.80;;;;;;4994419;28;20194;-25
2021/12/12 09:22:56;;;;;;;0.80;0.80;;;22.90;40.00;;;;;;4995130;28;20582;-23
2021/12/12 09:25:43;;;;;;;0.80;0.70;;;22.80;40.20;;;;;;4897113;29;20684;-25
2021/12/12 09:28:32;;;;;;;0.80;0.80;;;22.90;40.10;;;;;;4994564;28;20208;-23
2021/12/12 09:31:04;;;;;;;1.27;0.83;;;22.80;40.20;;;;;;4994333;28;20503;-25
2021/12/12 09:33:42;;;;;;;0.80;0.80;;;22.70;40.30;;;;;;4976904;28;20654;-25
2021/12/12 09:36:17;;;;;;;2.20;0.83;;;22.70;40.40;;;;;;4992996;28;20327;-25
2021/12/12 09:38:54;;;;;;;1.37;0.80;;;22.60;40.50;;;;;;4972477;28;20201;-24
2021/12/12 09:41:57;;;;;;;1.00;0.80;;;22.70;40.60;;;;;;4994729;28;20190;-23
2021/12/12 09:44:42;;;;;;;4.33;0.90;;;22.80;40.60;;;;;;4976643;28;20217;-22
2021/12/12 09:47:58;;;;;;;0.90;0.80;;;22.90;40.60;;;;;;4993749;28;20190;-24
2021/12/12 09:53:36;;;;;;;1.57;0.80;;;22.50;40.70;;;;;;4993206;28;20212;-23
2021/12/12 09:56:05;;;;;;;1.03;0.83;;;22.40;40.90;;;;;;4994111;28;20190;-25
2021/12/12 09:58:47;;;;;;;1.00;0.83;;;22.60;40.80;;;;;;4994040;28;20279;-22
2021/12/12 10:01:37;;;;;;;1.63;0.90;;;22.60;41.20;;;;;;4992393;28;20529;-24
2021/12/12 10:04:24;;;;;;;1.87;0.90;;;22.50;40.80;;;;;;4980197;28;20239;-25
2021/12/12 10:07:25;;;;;;;1.00;0.87;;;22.30;41.10;;;;;;4977034;28;20196;-21
2021/12/12 10:09:59;;;;;;;1.57;0.93;;;22.40;41.10;;;;;;4906293;28;20731;-24
2021/12/12 10:12:32;;;;;;;1.83;0.70;;;22.50;41.20;;;;;;4992651;28;20186;-23
2021/12/12 10:15:04;;;;;;;1.23;0.97;;;22.50;41.10;;;;;;4974510;28;20221;-23
2021/12/12 10:18:01;;;;;;;1.73;1.10;;;22.60;41.10;;;;;;4975186;28;20221;-23
2021/12/12 10:20:37;;;;;;;2.37;1.30;;;22.70;41.00;;;;;;4974751;28;20205;-24
2021/12/12 10:23:15;;;;;;;4.30;1.50;;;22.60;41.10;;;;;;4992983;28;20669;-26
2021/12/12 10:26:05;;;;;;;2.37;1.50;;;22.40;41.60;;;;;;4973906;28;20458;-22
2021/12/12 10:28:42;;;;;;;3.73;1.73;;;22.10;41.60;;;;;;4991869;28;20563;-23
2021/12/12 10:31:18;;;;;;;3.77;1.83;;;21.90;41.80;;;;;;4974900;28;20383;-24
2021/12/12 10:33:58;;;;;;;3.80;2.13;;;21.70;42.10;;;;;;4992446;28;20212;-25
2021/12/12 10:36:36;;;;;;;4.30;2.20;;;21.30;42.50;;;;;;4993352;28;20259;-23
2021/12/12 10:39:18;;;;;;;3.10;1.80;;;20.90;42.80;;;;;;4992700;28;20218;-25
2021/12/12 10:41:53;;;;;;;3.70;2.30;;;20.70;43.30;;;;;;4974868;28;20185;-23
2021/12/12 10:44:34;;;;;;;6.07;2.50;;;20.90;43.30;;;;;;4993284;28;20249;-24
2021/12/12 10:47:48;;;;;;;7.07;2.23;;;22.20;42.60;;;;;;4992715;28;20212;-22
2021/12/12 10:50:21;;;;;;;5.17;2.53;;;23.10;41.20;;;;;;4894014;29;20494;-26
2021/12/12 10:53:09;;;;;;;6.03;2.57;;;22.90;41.20;;;;;;4895180;29;20201;-24
2021/12/12 10:55:42;;;;;;;4.77;3.00;;;22.60;41.40;;;;;;4949221;28;20205;-22
2021/12/12 10:58:23;;;;;;;8.47;3.00;;;22.60;41.60;;;;;;4994083;28;20219;-25
2021/12/12 11:00:54;;;;;;;6.37;2.90;;;22.70;41.60;;;;;;4975707;28;20202;-21
2021/12/12 11:03:30;;;;;;;8.63;3.27;;;22.80;41.60;;;;;;4992043;28;20272;-24
2021/12/12 11:06:19;;;;;;;7.00;3.57;;;22.80;41.80;;;;;;4975179;28;20321;-23
2021/12/12 11:09:05;;;;;;;11.17;3.40;;;22.80;41.90;;;;;;4978944;28;20289;-20
2021/12/12 11:11:39;;;;;;;12.40;3.40;;;22.90;42.00;;;;;;4974611;28;20198;-24
2021/12/12 11:14:14;;;;;;;13.00;3.57;;;23.00;42.10;;;;;;4975228;28;20576;-27
2021/12/12 11:17:00;;;;;;;20.23;4.10;;;23.30;42.60;;;;;;4990938;28;20263;-26
2021/12/12 11:19:41;;;;;;;12.43;3.90;;;23.20;43.00;;;;;;4961865;28;20762;-23
2021/12/12 11:22:32;;;;;;;8.97;3.70;;;22.90;43.60;;;;;;4996720;28;20251;-22
2021/12/12 11:25:31;;;;;;;10.90;3.87;;;22.80;43.80;;;;;;4997277;28;20289;-26
2021/12/12 11:28:03;;;;;;;12.27;3.90;;;22.80;43.90;;;;;;4992377;28;20221;-21
2021/12/12 11:30:44;;;;;;;17.40;3.93;;;22.80;44.00;;;;;;4997520;28;20205;-26
2021/12/12 11:33:13;;;;;;;20.50;4.27;;;22.50;45.10;;;;;;5003781;28;20536;-23
2021/12/12 11:35:44;;;;;;;17.33;4.40;;;22.50;45.30;;;;;;5003845;28;20272;-24
2021/12/12 11:38:38;;;;;;;10.93;3.60;;;22.40;45.20;;;;;;5004344;28;20264;-23
2021/12/12 11:41:25;;;;;;;14.77;3.17;;;22.10;45.40;;;;;;4985434;28;20655;-25
2021/12/12 11:44:21;;;;;;;21.53;3.20;;;21.70;46.70;;;;;;5003317;28;20244;-22
2021/12/12 11:47:28;;;;;;;9.20;3.23;;;21.60;47.00;;;;;;5003658;28;20205;-24
2021/12/12 11:50:03;;;;;;;24.93;3.53;;;21.40;47.00;;;;;;4970030;28;20222;-24
2021/12/12 11:52:34;;;;;;;9.40;2.97;;;21.20;47.20;;;;;;5003030;28;20200;-24
2021/12/12 11:55:08;;;;;;;7.33;2.63;;;21.20;47.50;;;;;;5003281;28;20352;-25
2021/12/12 11:57:46;;;;;;;12.20;3.00;;;20.90;47.80;;;;;;5003627;28;20198;-24
2021/12/12 12:00:17;;;;;;;10.73;2.57;;;20.70;48.20;;;;;;5003519;28;20196;-23
2021/12/12 12:03:13;;;;;;;7.70;2.53;;;20.50;48.50;;;;;;5003135;28;20240;-22
2021/12/12 12:05:58;;;;;;;10.40;2.50;;;20.50;48.90;;;;;;5003666;28;20216;-24
2021/12/12 12:08:52;;;;;;;9.93;2.50;;;20.40;49.10;;;;;;5003655;28;20572;-22
2021/12/12 12:12:02;;;;;;;7.70;1.93;;;20.60;48.80;;;;;;5003498;28;20604;-25
2021/12/12 12:14:55;;;;;;;6.27;2.23;;;21.20;48.20;;;;;;5003618;28;20577;-22
2021/12/12 12:17:49;;;;;;;7.07;2.47;;;22.00;47.00;;;;;;5002794;28;20212;-21
2021/12/12 12:20:33;;;;;;;7.70;2.60;;;22.70;45.70;;;;;;5003456;28;20531;-24
2021/12/12 12:23:17;;;;;;;5.67;1.97;;;23.10;44.90;;;;;;5003045;28;20213;-24
2021/12/12 12:29:26;;;;;;;7.80;2.20;;;23.70;43.80;;;;;;4943032;29;20200;-23
2021/12/12 12:32:04;;;;;;;6.33;1.90;;;23.70;43.60;;;;;;4998493;28;20241;-23
2021/12/12 12:35:04;;;;;;;6.37;1.97;;;23.50;43.60;;;;;;4986377;28;20198;-23
2021/12/12 12:38:07;;;;;;;5.13;2.30;;;23.20;43.90;;;;;;5003390;28;20232;-23
2021/12/12 12:40:51;;;;;;;6.03;1.87;;;23.20;44.00;;;;;;5003509;28;20198;-24
2021/12/12 12:43:45;;;;;;;6.50;1.63;;;23.30;43.90;;;;;;4983808;28;20206;-24
2021/12/12 12:46:35;;;;;;;2.67;1.80;;;23.30;43.80;;;;;;5000318;28;20204;-24
2021/12/12 12:49:30;;;;;;;4.57;1.90;;;23.00;44.10;;;;;;4999849;28;20253;-21
2021/12/12 12:51:58;;;;;;;4.63;2.00;;;22.70;44.40;;;;;;4951870;28;20206;-27
2021/12/12 12:54:31;;;;;;;5.43;1.53;;;22.60;44.60;;;;;;4999885;28;20196;-22
2021/12/12 12:57:21;;;;;;;5.20;1.70;;;22.20;44.90;;;;;;4999377;28;20189;-24
2021/12/12 13:00:03;;;;;;;3.03;1.53;;;21.90;45.30;;;;;;4999640;28;20482;-23
2021/12/12 13:02:29;;;;;;;3.83;1.57;;;21.70;45.80;;;;;;4982353;28;20205;-23
2021/12/12 13:05:07;;;;;;;4.77;1.37;;;21.40;46.20;;;;;;4999380;28;20512;-21
2021/12/12 13:08:10;;;;;;;2.57;1.33;;;21.20;46.50;;;;;;5000309;28;20460;-22
2021/12/12 13:10:38;;;;;;;7.30;1.60;;;21.00;47.10;;;;;;4999532;28;20190;-25
2021/12/12 13:13:28;;;;;;;4.23;1.70;;;20.80;47.40;;;;;;4999439;28;20201;-23
2021/12/12 13:16:13;;;;;;;3.90;1.47;;;20.60;47.80;;;;;;4983177;28;20204;-21
2021/12/12 13:18:58;;;;;;;3.30;1.50;;;20.40;48.20;;;;;;4998293;28;20206;-23
2021/12/12 13:21:38;;;;;;;4.70;1.40;;;20.20;48.60;;;;;;4999416;28;20203;-25
2021/12/12 13:24:23;;;;;;;6.10;1.60;;;20.40;49.00;;;;;;4998940;28;20224;-23
2021/12/12 13:27:17;;;;;;;3.50;1.50;;;20.80;49.00;;;;;;4999111;28;20224;-21
2021/12/12 13:30:13;;;;;;;2.43;1.20;;;21.60;48.10;;;;;;4998975;28;20621;-25
2021/12/12 13:32:56;;;;;;;4.27;1.30;;;22.60;46.30;;;;;;4998982;28;20199;-23
2021/12/12 13:35:58;;;;;;;3.33;1.23;;;23.50;45.00;;;;;;4998211;28;20284;-26
2021/12/12 13:38:39;;;;;;;2.27;1.13;;;24.00;44.00;;;;;;4999141;28;20192;-24
2021/12/12 13:41:10;;;;;;;2.97;1.20;;;24.00;43.60;;;;;;4998826;28;20217;-23
2021/12/12 13:44:06;;;;;;;3.53;1.50;;;24.10;43.40;;;;;;4981787;28;20281;-23
2021/12/12 13:46:44;;;;;;;2.87;1.30;;;23.70;43.50;;;;;;4998788;28;20209;-24